createdAt,value
2022-10-19T00:00:39.755Z,0.69
2022-10-19T00:01:56.791Z,0.51
2022-10-19T00:03:13.748Z,0.68
2022-10-19T00:04:30.752Z,0.77
2022-10-19T00:05:47.774Z,0.76
2022-10-19T00:07:04.750Z,0.75
2022-10-19T00:08:21.744Z,0.79
2022-10-19T00:09:38.767Z,0.4
2022-10-19T00:10:55.740Z,0.81
2022-10-19T00:12:12.779Z,0.58
2022-10-19T00:13:29.742Z,0.54
2022-10-19T00:14:46.779Z,0.57
2022-10-19T00:16:04.918Z,0.24
2022-10-19T00:17:20.758Z,0.3
2022-10-19T00:18:37.772Z,1.26
2022-10-19T00:19:54.758Z,0.42
2022-10-19T00:21:11.734Z,0.62
2022-10-19T00:22:28.802Z,1.05
2022-10-19T00:23:45.749Z,0.7
2022-10-19T00:25:03.258Z,0.88
2022-10-19T00:26:20.776Z,1.07
2022-10-19T00:27:37.794Z,0.82
2022-10-19T00:28:54.853Z,0.69
2022-10-19T00:30:11.814Z,0.45
2022-10-19T00:31:28.785Z,0.64
2022-10-19T00:32:45.789Z,1
2022-10-19T00:34:02.824Z,0.35
2022-10-19T00:35:29.599Z,0.6
2022-10-19T00:36:46.791Z,0.55
2022-10-19T00:38:03.833Z,0.42
2022-10-19T00:39:20.780Z,0.23
2022-10-19T00:40:37.798Z,0.4
2022-10-19T00:41:54.846Z,0.15
2022-10-19T00:43:11.812Z,0.32
2022-10-19T00:44:28.795Z,0.26
2022-10-19T00:45:45.801Z,0.23
2022-10-19T00:47:02.869Z,0.23
2022-10-19T00:48:19.823Z,0.28
2022-10-19T00:49:36.777Z,0.27
2022-10-19T00:50:53.798Z,0.07
2022-10-19T00:52:10.807Z,0.16
2022-10-19T00:53:27.838Z,0.23
2022-10-19T00:54:44.796Z,0.49
2022-10-19T00:56:01.868Z,0.12
2022-10-19T00:57:18.793Z,0.5
2022-10-19T00:58:35.871Z,0.39
2022-10-19T00:59:52.803Z,0.71
2022-10-19T01:01:09.928Z,0.48
2022-10-19T01:02:26.896Z,0.5
2022-10-19T01:03:43.843Z,0.66
2022-10-19T01:05:00.905Z,0.47
2022-10-19T01:06:17.846Z,0.35
2022-10-19T01:07:35.148Z,0.25
2022-10-19T01:08:52.121Z,0.43
2022-10-19T01:10:08.909Z,0.52
2022-10-19T01:11:25.838Z,0.25
2022-10-19T01:12:42.874Z,0.3
2022-10-19T01:13:59.874Z,0.44
2022-10-19T01:15:16.877Z,0.78
2022-10-19T01:16:33.875Z,0.57
2022-10-19T01:17:50.938Z,0.5
2022-10-19T01:19:07.872Z,0.5
2022-10-19T01:20:24.859Z,0.25
2022-10-19T01:21:41.879Z,0.43
2022-10-19T01:22:58.834Z,0.39
2022-10-19T01:24:15.851Z,0.37
2022-10-19T01:25:32.905Z,0.26
2022-10-19T01:26:49.888Z,0.46
2022-10-19T01:28:06.853Z,0.47
2022-10-19T01:29:24.740Z,0.93
2022-10-19T01:30:41.908Z,0.32
2022-10-19T01:31:58.853Z,0.57
2022-10-19T01:33:15.886Z,0.31
2022-10-19T01:34:32.964Z,0.79
2022-10-19T01:35:50.810Z,0.54
2022-10-19T01:37:07.862Z,0.65
2022-10-19T01:38:24.881Z,0.53
2022-10-19T01:39:43.306Z,0.67
2022-10-19T01:40:58.877Z,0.55
2022-10-19T01:42:15.861Z,0.51
2022-10-19T01:43:32.872Z,0.41
2022-10-19T01:44:50.752Z,0.82
2022-10-19T01:46:07.877Z,1.16
2022-10-19T01:47:24.989Z,0.6
2022-10-19T01:48:42.203Z,0.98
2022-10-19T01:50:00.034Z,0.9
2022-10-19T01:51:16.982Z,1.22
2022-10-19T01:52:34.094Z,1.04
2022-10-19T01:53:50.880Z,1.5
2022-10-19T01:55:07.926Z,1.4
2022-10-19T01:56:24.881Z,0.92
2022-10-19T01:57:41.932Z,0.74
2022-10-19T01:58:58.913Z,0.75
2022-10-19T02:00:15.940Z,1
2022-10-19T02:01:32.939Z,0.74
2022-10-19T02:02:49.907Z,0.82
2022-10-19T02:04:07.445Z,0.61
2022-10-19T02:05:24.939Z,0.8
2022-10-19T02:06:41.908Z,1.08
2022-10-19T02:07:58.978Z,0.67
2022-10-19T02:09:16.796Z,1.01
2022-10-19T02:10:33.945Z,1.24
2022-10-19T02:11:52.227Z,1.08
2022-10-19T02:13:07.934Z,0.81
2022-10-19T02:14:24.964Z,0.52
2022-10-19T02:15:42.452Z,0.7
2022-10-19T02:17:01.066Z,1.49
2022-10-19T02:18:18.817Z,0.72
2022-10-19T02:19:36.063Z,0.88
2022-10-19T02:20:53.045Z,1.02
2022-10-19T02:22:09.984Z,0.7
2022-10-19T02:23:26.934Z,1.19
2022-10-19T02:24:43.945Z,0.9
2022-10-19T02:26:00.980Z,0.76
2022-10-19T02:27:17.954Z,0.76
2022-10-19T02:28:34.971Z,0.8
2022-10-19T02:29:51.941Z,0.89
2022-10-19T02:31:08.994Z,0.74
2022-10-19T02:32:25.951Z,0.49
2022-10-19T02:33:43.771Z,0.54
2022-10-19T02:35:00.963Z,0.91
2022-10-19T02:36:18.750Z,0.67
2022-10-19T02:38:54.086Z,0.91
2022-10-19T02:40:10.972Z,0.97
2022-10-19T02:41:29.015Z,0.92
2022-10-19T02:42:45.959Z,1.16
2022-10-19T02:44:04.027Z,0.64
2022-10-19T02:45:20.951Z,0.87
2022-10-19T02:47:55.956Z,1
2022-10-19T02:49:13.475Z,1.03
2022-10-19T02:50:30.976Z,0.95
2022-10-19T02:51:48.743Z,1.17
2022-10-19T02:53:06.008Z,0.82
2022-10-19T02:54:23.757Z,0.98
2022-10-19T02:56:57.995Z,1.22
2022-10-19T02:58:15.042Z,0.58
2022-10-19T02:59:32.050Z,1.4
2022-10-19T03:00:49.110Z,1.2
2022-10-19T03:02:06.105Z,0.91
2022-10-19T03:03:23.094Z,0.93
2022-10-19T03:04:40.042Z,1.04
2022-10-19T03:05:57.021Z,1.24
2022-10-19T03:07:14.038Z,0.7
2022-10-19T03:08:32.089Z,0.82
2022-10-19T03:09:49.078Z,0.73
2022-10-19T03:11:06.009Z,1.45
2022-10-19T03:12:23.766Z,0.82
2022-10-19T03:13:41.046Z,1.48
2022-10-19T03:14:59.140Z,1.35
2022-10-19T03:16:16.044Z,0.85
2022-10-19T03:17:33.948Z,0.67
2022-10-19T03:18:51.015Z,1.01
2022-10-19T03:20:08.025Z,0.57
2022-10-19T03:21:25.095Z,0.45
2022-10-19T03:22:42.139Z,0.96
2022-10-19T03:23:59.787Z,1.22
2022-10-19T03:25:17.144Z,1
2022-10-19T03:26:34.082Z,0.81
2022-10-19T03:27:51.067Z,0.72
2022-10-19T03:29:08.246Z,0.98
2022-10-19T03:30:25.019Z,1.32
2022-10-19T03:31:42.126Z,1.3
2022-10-19T03:32:59.139Z,1.31
2022-10-19T03:34:16.073Z,0.93
2022-10-19T03:35:33.077Z,0.68
2022-10-19T03:36:50.071Z,1.11
2022-10-19T03:38:07.091Z,0.82
2022-10-19T03:39:24.044Z,0.96
2022-10-19T03:40:41.118Z,0.58
2022-10-19T03:41:58.879Z,0.82
2022-10-19T03:43:16.101Z,0.37
2022-10-19T03:44:33.060Z,1.3
2022-10-19T03:45:50.095Z,0.59
2022-10-19T03:47:07.033Z,0.48
2022-10-19T03:48:24.156Z,0.38
2022-10-19T03:49:41.047Z,0.96
2022-10-19T03:50:58.072Z,0.83
2022-10-19T03:52:15.699Z,0.8
2022-10-19T03:53:34.322Z,0.61
2022-10-19T03:54:51.050Z,1.02
2022-10-19T03:56:08.809Z,0.51
2022-10-19T03:57:26.060Z,0.88
2022-10-19T03:58:43.120Z,0.79
2022-10-19T04:00:00.071Z,0.89
2022-10-19T04:01:17.100Z,0.99
2022-10-19T04:02:34.126Z,0.64
2022-10-19T04:03:51.068Z,1.05
2022-10-19T04:05:08.121Z,0.95
2022-10-19T04:06:26.069Z,1.69
2022-10-19T04:07:43.806Z,0.45
2022-10-19T04:09:01.083Z,0.71
2022-10-19T04:10:18.090Z,0.9
2022-10-19T04:11:35.095Z,0.77
2022-10-19T04:12:53.747Z,0.9
2022-10-19T04:15:26.079Z,0.95
2022-10-19T04:16:43.115Z,1.3
2022-10-19T04:18:00.107Z,0.78
2022-10-19T04:19:17.102Z,1.08
2022-10-19T04:20:34.168Z,1.39
2022-10-19T04:21:51.185Z,0.36
2022-10-19T04:23:08.237Z,0.71
2022-10-19T04:24:25.922Z,0.61
2022-10-19T04:25:43.823Z,0.58
2022-10-19T04:27:01.104Z,1.26
2022-10-19T04:28:18.223Z,0.78
2022-10-19T04:29:36.174Z,0.61
2022-10-19T04:30:53.204Z,0.89
2022-10-19T04:32:10.134Z,1.13
2022-10-19T04:33:27.151Z,1.02
2022-10-19T04:34:44.150Z,1
2022-10-19T04:36:01.149Z,0.97
2022-10-19T04:37:19.248Z,0.96
2022-10-19T04:38:36.272Z,0.6
2022-10-19T04:39:53.104Z,1.19
2022-10-19T04:47:02.230Z,1.09
2022-10-19T04:48:19.184Z,0.81
2022-10-19T04:49:36.182Z,0.71
2022-10-19T04:50:53.213Z,0.91
2022-10-19T04:52:10.224Z,0.55
2022-10-19T04:53:27.201Z,0.84
2022-10-19T04:54:44.216Z,1.12
2022-10-19T04:56:01.156Z,0.92
2022-10-19T04:57:18.165Z,1.32
2022-10-19T04:58:36.161Z,0.92
2022-10-19T04:59:53.225Z,0.89
2022-10-19T05:01:10.357Z,0.68
2022-10-19T05:02:27.155Z,0.79
2022-10-19T05:03:44.211Z,0.52
2022-10-19T05:05:01.587Z,0.82
2022-10-19T05:06:19.181Z,0.62
2022-10-19T05:07:36.507Z,0.87
2022-10-19T05:08:53.271Z,1.3
2022-10-19T05:10:10.241Z,1.1
2022-10-19T05:11:27.203Z,0.77
2022-10-19T05:12:44.190Z,0.7
2022-10-19T05:14:01.231Z,1.23
2022-10-19T05:15:18.210Z,1.01
2022-10-19T05:16:36.176Z,0.95
2022-10-19T05:17:53.180Z,1.06
2022-10-19T05:19:10.216Z,1.18
2022-10-19T05:20:27.187Z,1.11
2022-10-19T05:21:44.186Z,1.41
2022-10-19T05:23:04.616Z,1.4
2022-10-19T05:24:18.207Z,1.09
2022-10-19T05:25:36.298Z,0.84
2022-10-19T05:26:53.207Z,0.75
2022-10-19T05:28:10.239Z,0.97
2022-10-19T05:29:27.224Z,1.25
2022-10-19T05:30:48.194Z,1.13
2022-10-19T05:32:01.202Z,1.25
2022-10-19T05:33:18.210Z,1.49
2022-10-19T05:34:35.245Z,1.17
2022-10-19T05:35:52.241Z,1.09
2022-10-19T05:37:09.220Z,0.76
2022-10-19T05:38:26.249Z,1.43
2022-10-19T05:39:43.233Z,1.45
2022-10-19T05:41:00.254Z,1.14
2022-10-19T05:42:17.246Z,1.06
2022-10-19T05:43:34.251Z,0.71
2022-10-19T05:44:51.293Z,1.23
2022-10-19T05:46:08.265Z,1.39
2022-10-19T05:47:27.461Z,1.06
2022-10-19T05:48:43.439Z,1.96
2022-10-19T05:50:00.264Z,1.16
2022-10-19T05:51:17.266Z,1.35
2022-10-19T05:52:34.241Z,1.48
2022-10-19T05:53:51.309Z,1.23
2022-10-19T05:55:08.354Z,0.85
2022-10-19T05:56:25.257Z,1.32
2022-10-19T05:57:42.240Z,1.05
2022-10-19T05:58:59.270Z,1.08
2022-10-19T06:00:16.318Z,1.24
2022-10-19T06:01:33.379Z,1.23
2022-10-19T06:02:50.291Z,1.74
2022-10-19T06:04:07.395Z,1.4
2022-10-19T06:05:24.262Z,1.28
2022-10-19T06:06:41.446Z,1.1
2022-10-19T06:07:58.261Z,0.89
2022-10-19T06:09:15.300Z,1
2022-10-19T06:10:32.277Z,0.87
2022-10-19T06:11:49.338Z,1.98
2022-10-19T06:13:06.260Z,1.17
2022-10-19T06:14:23.311Z,0.87
2022-10-19T06:15:40.275Z,0.92
2022-10-19T06:16:57.332Z,1.2
2022-10-19T06:18:14.315Z,0.82
2022-10-19T06:19:32.359Z,1.24
2022-10-19T06:20:49.288Z,1.43
2022-10-19T06:22:06.315Z,1.27
2022-10-19T06:23:23.283Z,0.53
2022-10-19T06:24:40.379Z,0.63
2022-10-19T06:25:57.283Z,1.13
2022-10-19T06:27:14.442Z,1.25
2022-10-19T06:28:31.325Z,0.8
2022-10-19T06:29:48.332Z,1.44
2022-10-19T06:31:07.089Z,0.89
2022-10-19T06:32:22.309Z,1.05
2022-10-19T06:33:39.384Z,1.01
2022-10-19T06:34:56.754Z,1.39
2022-10-19T06:36:13.920Z,0.74
2022-10-19T06:37:31.546Z,2.03
2022-10-19T06:38:48.375Z,0.87
2022-10-19T06:40:07.161Z,1.63
2022-10-19T06:41:22.325Z,1.03
2022-10-19T06:42:39.352Z,1.13
2022-10-19T06:43:57.701Z,0.84
2022-10-19T06:45:15.414Z,1.3
2022-10-19T06:46:32.365Z,1.5
2022-10-19T06:47:49.356Z,0.99
2022-10-19T06:49:06.395Z,0.66
2022-10-19T06:50:23.398Z,1.57
2022-10-19T06:51:40.614Z,1.11
2022-10-19T06:52:57.392Z,1.18
2022-10-19T06:54:14.354Z,1.55
2022-10-19T06:55:31.358Z,1.17
2022-10-19T06:58:05.360Z,1.29
2022-10-19T06:59:22.371Z,0.71
2022-10-19T07:00:39.446Z,1.31
2022-10-19T07:01:56.341Z,0.92
2022-10-19T07:03:13.350Z,1.43
2022-10-19T07:04:30.431Z,1.1
2022-10-19T07:05:47.371Z,1.3
2022-10-19T07:07:04.397Z,1.29
2022-10-19T07:08:21.336Z,1.07
2022-10-19T07:09:38.399Z,1.38
2022-10-19T07:10:55.403Z,1.89
2022-10-19T07:12:12.393Z,1.76
2022-10-19T07:13:29.431Z,1.51
2022-10-19T07:14:46.623Z,1.81
2022-10-19T07:16:03.391Z,1.06
2022-10-19T07:17:20.355Z,1.1
2022-10-19T07:18:37.379Z,1.58
2022-10-19T07:19:54.437Z,1.42
2022-10-19T07:21:11.526Z,1.91
2022-10-19T07:22:28.508Z,1.2
2022-10-19T07:23:45.404Z,1.54
2022-10-19T07:25:02.548Z,0.93
2022-10-19T07:26:19.390Z,0.96
2022-10-19T07:27:37.705Z,2.19
2022-10-19T07:28:53.398Z,1.6
2022-10-19T07:30:10.455Z,1.2
2022-10-19T07:31:27.696Z,1.07
2022-10-19T07:32:46.877Z,1.02
2022-10-19T07:34:01.355Z,1.4
2022-10-19T07:35:18.426Z,1.86
2022-10-19T07:36:35.390Z,2.18
2022-10-19T07:37:52.390Z,1.34
2022-10-19T07:39:09.387Z,0.64
2022-10-19T07:40:26.410Z,1.88
2022-10-19T07:41:43.391Z,1.93
2022-10-19T07:43:00.390Z,1.57
2022-10-19T07:44:17.446Z,1.81
2022-10-19T07:45:34.583Z,1.69
2022-10-19T07:46:51.418Z,1.39
2022-10-19T07:48:08.614Z,1.32
2022-10-19T07:49:25.408Z,1.7
2022-10-19T07:50:42.437Z,2.31
2022-10-19T07:51:59.452Z,1.56
2022-10-19T07:53:16.468Z,1.39
2022-10-19T07:54:33.446Z,1.42
2022-10-19T07:55:50.460Z,1.98
2022-10-19T07:57:07.894Z,1.59
2022-10-19T07:58:25.523Z,0.95
2022-10-19T07:59:42.528Z,1.3
2022-10-19T08:00:59.579Z,1.68
2022-10-19T08:02:16.694Z,1.53
2022-10-19T08:05:07.983Z,1.39
2022-10-19T08:06:07.542Z,1.31
2022-10-19T08:07:24.467Z,1.66
2022-10-19T08:08:41.487Z,2.19
2022-10-19T08:09:58.510Z,1.52
2022-10-19T08:11:15.609Z,1.53
2022-10-19T08:12:32.756Z,0.84
2022-10-19T08:13:49.442Z,1.22
2022-10-19T08:15:06.686Z,1.57
2022-10-19T08:16:23.476Z,1.84
2022-10-19T08:17:40.459Z,1.96
2022-10-19T08:18:57.468Z,1.36
2022-10-19T08:20:14.367Z,1.26
2022-10-19T08:21:31.385Z,2.11
2022-10-19T08:22:48.333Z,1.34
2022-10-19T08:24:05.373Z,0.97
2022-10-19T08:25:22.720Z,1.46
2022-10-19T08:26:39.434Z,2.18
2022-10-19T08:27:56.462Z,2.49
2022-10-19T08:29:13.368Z,2.36
2022-10-19T08:30:30.483Z,1.97
2022-10-19T08:31:47.330Z,1.09
2022-10-19T08:33:04.457Z,1.63
2022-10-19T08:34:21.503Z,1.81
2022-10-19T08:35:38.381Z,2.99
2022-10-19T08:36:55.549Z,1.74
2022-10-19T08:38:12.383Z,1.5
2022-10-19T08:39:29.365Z,1.35
2022-10-19T08:40:46.371Z,1.8
2022-10-19T08:42:03.379Z,2.61
2022-10-19T08:43:20.393Z,2.07
2022-10-19T08:44:37.355Z,2.44
2022-10-19T08:45:54.482Z,1.53
2022-10-19T08:47:12.316Z,1.46
2022-10-19T08:48:28.367Z,1.51
2022-10-19T08:49:45.419Z,2.09
2022-10-19T08:51:02.791Z,1.09
2022-10-19T08:52:19.399Z,1.96
2022-10-19T08:53:36.380Z,2.67
2022-10-19T08:54:53.389Z,1.47
2022-10-19T08:56:12.471Z,1.71
2022-10-19T08:57:27.404Z,1.13
2022-10-19T08:58:44.370Z,0.97
2022-10-19T09:00:01.420Z,2.51
2022-10-19T09:01:18.564Z,3
2022-10-19T09:02:35.817Z,1.75
2022-10-19T09:03:56.277Z,2.98
2022-10-19T09:05:09.436Z,3.04
2022-10-19T09:06:26.439Z,1.82
2022-10-19T09:07:43.436Z,1.37
2022-10-19T09:09:00.744Z,1.98
2022-10-19T09:10:17.460Z,1.94
2022-10-19T09:11:34.432Z,2.22
2022-10-19T09:12:52.844Z,1.68
2022-10-19T09:14:08.393Z,3.4
2022-10-19T09:15:25.451Z,1.99
2022-10-19T09:16:42.434Z,1.78
2022-10-19T09:17:59.443Z,1.2
2022-10-19T09:19:16.430Z,1.51
2022-10-19T09:20:33.606Z,1.26
2022-10-19T09:21:50.438Z,1.77
2022-10-19T09:23:11.097Z,2.2
2022-10-19T09:24:24.408Z,1.96
2022-10-19T09:25:41.442Z,2.14
2022-10-19T09:26:58.438Z,1.5
2022-10-19T09:28:15.441Z,1.71
2022-10-19T09:29:32.390Z,2.03
2022-10-19T09:30:49.437Z,2.63
2022-10-19T09:32:06.474Z,2.44
2022-10-19T09:33:23.514Z,2.22
2022-10-19T09:34:40.437Z,1.78
2022-10-19T09:35:57.435Z,1.66
2022-10-19T09:37:21.859Z,1.54
2022-10-19T09:38:31.441Z,1.38
2022-10-19T09:39:52.318Z,1.03
2022-10-19T09:41:05.453Z,1.49
2022-10-19T09:42:22.512Z,1.42
2022-10-19T09:43:39.438Z,2.17
2022-10-19T09:44:56.472Z,1.75
2022-10-19T09:46:19.636Z,1.99
2022-10-19T09:47:30.480Z,2.56
2022-10-19T09:48:47.496Z,2.35
2022-10-19T09:50:04.489Z,1.6
2022-10-19T09:51:21.473Z,1.59
2022-10-19T09:52:38.503Z,2.23
2022-10-19T09:53:55.488Z,1.44
2022-10-19T09:55:12.621Z,2.41
2022-10-19T09:56:29.461Z,1.96
2022-10-19T09:57:46.507Z,2.82
2022-10-19T09:59:03.449Z,1.87
2022-10-19T10:00:20.491Z,2.23
2022-10-19T10:01:40.074Z,2.17
2022-10-19T10:02:54.514Z,1.46
2022-10-19T10:04:11.510Z,1.52
2022-10-19T10:05:28.617Z,1.65
2022-10-19T10:06:45.505Z,0.7
2022-10-19T10:08:02.632Z,2.52
2022-10-19T10:09:19.500Z,1.25
2022-10-19T10:10:36.541Z,1.85
2022-10-19T10:13:10.500Z,1.53
2022-10-19T10:14:27.491Z,0.76
2022-10-19T10:15:44.593Z,2.46
2022-10-19T10:17:01.481Z,1.5
2022-10-19T10:18:18.539Z,1.87
2022-10-19T10:19:35.497Z,1.97
2022-10-19T10:20:53.099Z,1.81
2022-10-19T10:22:10.501Z,1.08
2022-10-19T10:23:27.512Z,1.14
2022-10-19T10:24:44.499Z,1.32
2022-10-19T10:26:01.538Z,2.13
2022-10-19T10:27:18.562Z,3.2
2022-10-19T10:28:35.498Z,2.75
2022-10-19T10:29:52.520Z,1.22
2022-10-19T10:31:09.520Z,1.62
2022-10-19T10:32:26.533Z,2.22
2022-10-19T10:33:45.524Z,3.41
2022-10-19T10:35:01.421Z,2.14
2022-10-19T10:36:18.019Z,3.05
2022-10-19T10:37:34.731Z,2.66
2022-10-19T10:38:51.989Z,1.6
2022-10-19T10:40:08.596Z,1.74
2022-10-19T10:41:25.590Z,2.73
2022-10-19T10:42:43.044Z,2.12
2022-10-19T10:44:00.896Z,2.43
2022-10-19T10:45:16.588Z,2.09
2022-10-19T10:46:33.531Z,0.89
2022-10-19T10:47:50.570Z,2.1
2022-10-19T10:49:07.634Z,1.99
2022-10-19T10:50:24.606Z,2.19
2022-10-19T10:51:41.585Z,1.45
2022-10-19T10:52:58.571Z,1.81
2022-10-19T10:54:15.643Z,2.23
2022-10-19T10:55:32.575Z,1.29
2022-10-19T10:56:49.603Z,1.89
2022-10-19T10:58:06.609Z,1.32
2022-10-19T10:59:23.545Z,0.89
2022-10-19T11:00:40.579Z,1.04
2022-10-19T11:01:58.053Z,1.5
2022-10-19T11:03:14.570Z,0.75
2022-10-19T11:04:31.578Z,1.55
2022-10-19T11:05:48.683Z,2.02
2022-10-19T11:07:05.557Z,1.97
2022-10-19T11:08:22.666Z,1
2022-10-19T11:09:39.550Z,1.38
2022-10-19T11:10:56.589Z,0.84
2022-10-19T11:12:13.609Z,0.97
2022-10-19T11:13:30.720Z,2.01
2022-10-19T11:14:47.649Z,2.17
2022-10-19T11:16:04.675Z,1.47
2022-10-19T11:17:21.558Z,1.46
2022-10-19T11:18:38.572Z,2.14
2022-10-19T11:19:55.644Z,1.62
2022-10-19T11:21:12.706Z,1.29
2022-10-19T11:22:29.605Z,1.75
2022-10-19T11:23:46.652Z,2.46
2022-10-19T11:25:03.694Z,1.54
2022-10-19T11:26:20.736Z,1.84
2022-10-19T11:27:38.069Z,1.42
2022-10-19T11:28:54.687Z,1.21
2022-10-19T11:30:11.725Z,1.53
2022-10-19T11:31:29.637Z,1.91
2022-10-19T11:32:45.991Z,1.02
2022-10-19T11:34:02.731Z,1.21
2022-10-19T11:35:19.626Z,0.86
2022-10-19T11:36:36.643Z,1.66
2022-10-19T11:38:14.200Z,1.71
2022-10-19T11:39:10.623Z,2.09
2022-10-19T11:40:27.903Z,1.92
2022-10-19T11:41:44.698Z,1.59
2022-10-19T11:43:01.600Z,1.43
2022-10-19T11:44:18.609Z,1.27
2022-10-19T11:45:35.616Z,2.14
2022-10-19T11:46:52.898Z,2.1
2022-10-19T11:48:09.632Z,1
2022-10-19T11:49:26.617Z,2.55
2022-10-19T11:50:44.205Z,1.73
2022-10-19T11:52:00.825Z,2.13
2022-10-19T11:53:17.729Z,1.87
2022-10-19T11:54:34.706Z,2.31
2022-10-19T11:55:51.644Z,2.6
2022-10-19T11:57:11.322Z,1.36
2022-10-19T11:58:25.630Z,2.69
2022-10-19T11:59:42.947Z,2.14
2022-10-19T12:00:59.654Z,2.22
2022-10-19T12:02:16.758Z,1.65
2022-10-19T12:03:33.647Z,1.9
2022-10-19T12:04:50.671Z,1.36
2022-10-19T12:06:07.730Z,1.94
2022-10-19T12:07:24.651Z,1.3
2022-10-19T12:08:41.746Z,1.62
2022-10-19T12:09:58.778Z,1.42
2022-10-19T12:11:15.664Z,1.69
2022-10-19T12:12:33.087Z,1.57
2022-10-19T12:13:49.634Z,1
2022-10-19T12:15:07.067Z,2.05
2022-10-19T12:16:23.658Z,1.18
2022-10-19T12:17:40.668Z,1.47
2022-10-19T12:18:57.975Z,1.4
2022-10-19T12:20:16.090Z,2.48
2022-10-19T12:21:31.700Z,2.41
2022-10-19T12:22:48.657Z,2.46
2022-10-19T12:24:05.687Z,2.26
2022-10-19T12:25:23.440Z,2.55
2022-10-19T12:26:40.691Z,2.58
2022-10-19T12:27:57.709Z,1.95
2022-10-19T12:29:14.694Z,1.93
2022-10-19T12:30:31.711Z,3.31
2022-10-19T12:31:48.724Z,2.56
2022-10-19T12:33:05.686Z,2.02
2022-10-19T12:34:22.675Z,2.06
2022-10-19T12:35:39.772Z,2.84
2022-10-19T12:36:56.724Z,2.22
2022-10-19T12:38:13.923Z,2
2022-10-19T12:39:30.773Z,1.4
2022-10-19T12:40:48.053Z,1.71
2022-10-19T12:42:04.706Z,2.45
2022-10-19T12:43:21.751Z,1.68
2022-10-19T12:44:38.702Z,1.28
2022-10-19T12:45:55.743Z,1.85
2022-10-19T12:47:12.760Z,2.39
2022-10-19T12:48:29.747Z,2.41
2022-10-19T12:49:46.697Z,1.89
2022-10-19T12:51:03.744Z,1.89
2022-10-19T12:52:20.784Z,2.48
2022-10-19T12:53:37.733Z,2.01
2022-10-19T12:54:54.734Z,2.61
2022-10-19T12:56:11.723Z,2.06
2022-10-19T12:57:28.805Z,1.81
2022-10-19T12:58:47.831Z,2.06
2022-10-19T13:00:02.832Z,2.04
2022-10-19T13:01:19.792Z,2.34
2022-10-19T13:02:36.810Z,2.52
2022-10-19T13:03:53.781Z,2.22
2022-10-19T13:05:10.725Z,2.08
2022-10-19T13:06:28.241Z,2.04
2022-10-19T13:07:45.989Z,1.94
2022-10-19T13:09:02.953Z,1.97
2022-10-19T13:10:19.789Z,2.48
2022-10-19T13:11:36.858Z,2.4
2022-10-19T13:12:53.813Z,1.97
2022-10-19T13:14:10.783Z,1.7
2022-10-19T13:15:27.950Z,2.2
2022-10-19T13:16:44.808Z,2.77
2022-10-19T13:18:01.890Z,2.66
2022-10-19T13:19:18.879Z,1.9
2022-10-19T13:20:35.866Z,1.17
2022-10-19T13:21:53.123Z,1.18
2022-10-19T13:23:10.942Z,1.85
2022-10-19T13:24:27.806Z,1.97
2022-10-19T13:25:44.761Z,1.24
2022-10-19T13:27:01.796Z,1
2022-10-19T13:28:18.841Z,1.83
2022-10-19T13:29:35.817Z,1.3
2022-10-19T13:30:53.395Z,2.09
2022-10-19T13:32:10.140Z,1.18
2022-10-19T13:33:27.832Z,1.64
2022-10-19T13:34:44.793Z,1.83
2022-10-19T13:36:02.115Z,0.96
2022-10-19T13:37:18.933Z,1.08
2022-10-19T13:39:52.767Z,2.03
2022-10-19T13:41:10.962Z,1.87
2022-10-19T13:42:27.846Z,1.73
2022-10-19T13:43:44.794Z,1.02
2022-10-19T13:45:01.805Z,1.84
2022-10-19T13:46:18.845Z,1.93
2022-10-19T13:48:52.882Z,1.95
2022-10-19T13:50:09.828Z,1.74
2022-10-19T13:51:26.830Z,1.33
2022-10-19T13:52:43.927Z,1.71
2022-10-19T13:54:00.837Z,2.04
2022-10-19T13:55:18.058Z,2.03
2022-10-19T13:56:34.950Z,2.52
2022-10-19T13:57:53.194Z,2.15
2022-10-19T13:59:08.876Z,1.79
2022-10-19T14:00:27.104Z,1.79
2022-10-19T14:01:44.054Z,1.33
2022-10-19T14:03:00.822Z,1.44
2022-10-19T14:04:17.901Z,1.72
2022-10-19T14:05:35.034Z,1.5
2022-10-19T14:06:51.815Z,1.74
2022-10-19T14:08:08.847Z,1.31
2022-10-19T14:09:25.927Z,1.07
2022-10-19T14:10:59.947Z,1.61
2022-10-19T14:11:59.842Z,0.94
2022-10-19T14:13:16.843Z,1.53
2022-10-19T14:14:33.902Z,1.11
2022-10-19T14:15:50.930Z,2.47
2022-10-19T14:17:07.903Z,2.12
2022-10-19T14:18:24.841Z,1.92
2022-10-19T14:19:41.842Z,1.63
2022-10-19T14:20:59.278Z,2.33
2022-10-19T14:22:15.846Z,1.81
2022-10-19T14:23:32.932Z,1.1
2022-10-19T14:24:49.893Z,1.1
2022-10-19T14:26:06.894Z,1.64
2022-10-19T14:27:23.855Z,1.97
2022-10-19T14:28:40.868Z,1.08
2022-10-19T14:29:57.859Z,2.22
2022-10-19T14:31:14.878Z,2.07
2022-10-19T14:32:31.933Z,1.83
2022-10-19T14:33:48.862Z,1.82
2022-10-19T14:35:05.909Z,2.37
2022-10-19T14:36:22.861Z,1.96
2022-10-19T14:37:39.950Z,1.15
2022-10-19T14:38:56.912Z,0.7
2022-10-19T14:40:14.129Z,1.31
2022-10-19T14:41:30.912Z,2.27
2022-10-19T14:42:47.963Z,1.47
2022-10-19T14:44:04.898Z,1.57
2022-10-19T14:45:22.037Z,1.13
2022-10-19T14:46:38.901Z,1.19
2022-10-19T14:47:55.925Z,1.51
2022-10-19T14:49:12.894Z,1.86
2022-10-19T14:50:29.945Z,1.67
2022-10-19T14:51:47.174Z,0.95
2022-10-19T14:53:03.879Z,0.98
2022-10-19T14:54:20.891Z,1.1
2022-10-19T14:55:37.945Z,1.81
2022-10-19T14:56:54.955Z,1.9
2022-10-19T14:58:11.890Z,1.56
2022-10-19T14:59:28.957Z,1.89
2022-10-19T15:00:45.934Z,2.16
2022-10-19T15:02:02.966Z,1.54
2022-10-19T15:03:19.971Z,1.28
2022-10-19T15:04:36.886Z,1.53
2022-10-19T15:05:53.907Z,1.83
2022-10-19T15:07:10.949Z,2.66
2022-10-19T15:08:28.012Z,1.07
2022-10-19T15:09:48.104Z,1.55
2022-10-19T15:11:01.941Z,0.68
2022-10-19T15:12:18.940Z,1.49
2022-10-19T15:13:35.948Z,1.27
2022-10-19T15:14:52.947Z,1.68
2022-10-19T15:16:09.913Z,1.54
2022-10-19T15:17:26.919Z,1.77
2022-10-19T15:18:49.136Z,0.89
2022-10-19T15:20:01.195Z,1.04
2022-10-19T15:21:17.980Z,0.65
2022-10-19T15:22:35.191Z,1.13
2022-10-19T15:23:51.974Z,0.95
2022-10-19T15:25:08.980Z,0.95
2022-10-19T15:26:26.036Z,1.11
2022-10-19T15:27:43.165Z,1
2022-10-19T15:28:59.948Z,1.77
2022-10-19T15:30:17.021Z,1.72
2022-10-19T15:31:33.952Z,1.13
2022-10-19T15:32:50.968Z,0.72
2022-10-19T15:34:07.978Z,0.96
2022-10-19T15:35:25.014Z,1.1
2022-10-19T15:36:41.986Z,0.82
2022-10-19T15:37:58.973Z,0.73
2022-10-19T15:39:32.774Z,0.64
2022-10-19T15:40:35.808Z,0.82
2022-10-19T15:41:52.981Z,0.9
2022-10-19T15:43:09.984Z,0.78
2022-10-19T15:44:26.989Z,1.11
2022-10-19T15:45:44.047Z,0.79
2022-10-19T15:47:01.001Z,1.82
2022-10-19T15:48:18.047Z,1.57
2022-10-19T15:49:35.033Z,1.48
2022-10-19T15:50:52.005Z,1.44
2022-10-19T15:52:09.019Z,1.71
2022-10-19T15:53:25.987Z,1.14
2022-10-19T15:54:43.054Z,0.6
2022-10-19T15:56:00.031Z,0.85
2022-10-19T15:57:17.039Z,0.42
2022-10-19T15:58:34.025Z,0.38
2022-10-19T15:59:51.031Z,0.14
2022-10-19T16:01:08.041Z,0.21
2022-10-19T16:02:25.004Z,0.2
2022-10-19T16:03:42.002Z,0.44
2022-10-19T16:04:59.080Z,0.22
2022-10-19T16:06:15.981Z,0.26
2022-10-19T16:07:33.264Z,0.67
2022-10-19T16:08:50.039Z,0.62
2022-10-19T16:10:07.193Z,0.53
2022-10-19T16:11:24.030Z,0.52
2022-10-19T16:12:41.053Z,1.05
2022-10-19T16:13:58.001Z,1.13
2022-10-19T16:15:15.267Z,1.23
2022-10-19T16:16:31.999Z,1.01
2022-10-19T16:17:49.066Z,1.08
2022-10-19T16:19:06.010Z,0.12
2022-10-19T16:20:23.226Z,0.21
2022-10-19T16:21:40.022Z,0.59
2022-10-19T16:22:57.030Z,0.46
2022-10-19T16:24:14.062Z,0.26
2022-10-19T16:25:31.102Z,0.75
2022-10-19T16:26:48.026Z,0.78
2022-10-19T16:28:05.057Z,0.87
2022-10-19T16:29:24.332Z,0.56
2022-10-19T16:30:39.066Z,0.62
2022-10-19T16:31:56.053Z,0.64
2022-10-19T16:33:13.029Z,0.73
2022-10-19T16:34:30.043Z,0.73
2022-10-19T16:35:47.053Z,0.82
2022-10-19T16:37:05.715Z,0.77
2022-10-19T16:38:21.149Z,0.85
2022-10-19T16:39:38.087Z,0.58
2022-10-19T16:40:55.040Z,0.55
2022-10-19T16:42:12.050Z,0.77
2022-10-19T16:43:29.115Z,0.61
2022-10-19T16:44:46.050Z,0.76
2022-10-19T16:46:03.086Z,0.81
2022-10-19T16:47:20.057Z,0.78
2022-10-19T16:48:37.074Z,0.57
2022-10-19T16:49:54.123Z,0.56
2022-10-19T16:51:11.094Z,0.56
2022-10-19T16:52:28.081Z,0.67
2022-10-19T16:53:45.098Z,0.61
2022-10-19T16:55:02.182Z,0.79
2022-10-19T16:56:19.057Z,0.57
2022-10-19T16:57:36.086Z,0.54
2022-10-19T16:58:53.124Z,0.33
2022-10-19T17:00:10.173Z,0.49
2022-10-19T17:01:27.155Z,0.75
2022-10-19T17:02:44.504Z,0.62
2022-10-19T17:04:01.127Z,0.52
2022-10-19T17:05:18.229Z,0.42
2022-10-19T17:06:35.133Z,0.62
2022-10-19T17:07:52.176Z,0.66
2022-10-19T17:10:26.183Z,0.64
2022-10-19T17:11:43.125Z,0.38
2022-10-19T17:13:00.093Z,0.51
2022-10-19T17:14:17.146Z,0.36
2022-10-19T17:15:43.162Z,0.47
2022-10-19T17:16:51.098Z,0.26
2022-10-19T17:18:08.150Z,0.4
2022-10-19T17:19:25.124Z,0.28
2022-10-19T17:20:42.138Z,0.4
2022-10-19T17:21:59.131Z,0.47
2022-10-19T17:23:16.117Z,0.25
2022-10-19T17:24:33.136Z,0.39
2022-10-19T17:25:50.182Z,0.31
2022-10-19T17:27:07.144Z,0.41
2022-10-19T17:28:25.486Z,0.42
2022-10-19T17:29:41.150Z,0.34